createdAt,value
2023-02-01T00:00:39.000Z,45.28
2023-02-01T00:03:06.139Z,45.13
2023-02-01T00:05:33.309Z,45.18
2023-02-01T00:08:00.702Z,44.99
2023-02-01T00:10:27.856Z,45.40
2023-02-01T00:12:55.050Z,45.37
2023-02-01T00:15:22.367Z,45.15
2023-02-01T00:17:53.889Z,45.50
2023-02-01T00:20:21.454Z,45.50
2023-02-01T00:22:48.778Z,45.58
2023-02-01T00:25:16.166Z,45.31
2023-02-01T00:27:43.390Z,45.37
2023-02-01T00:30:11.716Z,45.48
2023-02-01T00:32:38.904Z,45.44
2023-02-01T00:35:07.044Z,45.65
2023-02-01T00:37:34.330Z,45.74
2023-02-01T00:40:01.580Z,46.07
2023-02-01T00:42:28.748Z,45.61
2023-02-01T00:44:55.901Z,46.25
2023-02-01T00:47:23.216Z,46.01
2023-02-01T00:49:50.428Z,45.67
2023-02-01T00:52:17.797Z,46.12
2023-02-01T00:54:45.106Z,46.16
2023-02-01T00:57:12.528Z,46.26
2023-02-01T00:59:39.994Z,46.10
2023-02-01T01:02:07.411Z,45.96
2023-02-01T01:04:34.728Z,46.08
2023-02-01T01:07:01.942Z,46.12
2023-02-01T01:09:29.161Z,46.45
2023-02-01T01:11:56.566Z,46.01
2023-02-01T01:14:23.857Z,46.45
2023-02-01T01:16:51.017Z,46.24
2023-02-01T01:19:18.215Z,46.66
2023-02-01T01:21:45.376Z,46.76
2023-02-01T01:24:12.596Z,46.96
2023-02-01T01:26:40.106Z,46.74
2023-02-01T01:29:07.798Z,46.81
2023-02-01T01:31:35.100Z,46.57
2023-02-01T01:34:03.877Z,46.38
2023-02-01T01:36:31.251Z,46.44
2023-02-01T01:38:58.543Z,46.58
2023-02-01T01:41:32.032Z,46.85
2023-02-01T01:44:28.056Z,46.92
2023-02-01T01:46:55.360Z,46.86
2023-02-01T01:49:26.628Z,47.02
2023-02-01T01:52:01.470Z,46.91
2023-02-01T01:54:33.496Z,47.33
2023-02-01T01:57:09.617Z,47.12
2023-02-01T01:59:41.635Z,47.11
2023-02-01T02:02:09.479Z,46.55
2023-02-01T02:04:37.811Z,47.11
2023-02-01T02:07:23.412Z,46.86
2023-02-01T02:10:00.088Z,47.11
2023-02-01T02:12:28.132Z,47.20
2023-02-01T02:14:55.769Z,47.28
2023-02-01T02:17:54.363Z,47.08
2023-02-01T02:20:55.002Z,47.19
2023-02-01T02:23:40.399Z,46.92
2023-02-01T02:26:41.866Z,47.55
2023-02-01T02:29:43.629Z,47.44
2023-02-01T02:32:45.147Z,47.40
2023-02-01T02:35:30.992Z,47.75
2023-02-01T02:38:30.699Z,47.60
2023-02-01T02:41:34.621Z,47.59
2023-02-01T02:44:15.069Z,47.85
2023-02-01T02:46:51.920Z,47.55
2023-02-01T02:49:22.231Z,47.37
2023-02-01T02:51:57.827Z,47.17
2023-02-01T02:54:34.066Z,47.83
2023-02-01T02:57:06.285Z,47.83
2023-02-01T02:59:36.502Z,47.66
2023-02-01T03:02:04.125Z,47.23
2023-02-01T03:04:31.362Z,47.56
2023-02-01T03:06:58.719Z,47.80
2023-02-01T03:09:35.495Z,47.61
2023-02-01T03:12:12.838Z,48.31
2023-02-01T03:14:46.497Z,47.89
2023-02-01T03:17:20.261Z,48.07
2023-02-01T03:19:53.122Z,48.01
2023-02-01T03:22:28.099Z,48.13
2023-02-01T03:25:11.686Z,48.19
2023-02-01T03:27:50.798Z,48.18
2023-02-01T03:30:37.646Z,47.93
2023-02-01T03:33:12.674Z,48.27
2023-02-01T03:35:48.587Z,47.87
2023-02-01T03:38:28.541Z,47.85
2023-02-01T03:41:18.506Z,47.95
2023-02-01T03:44:07.673Z,48.07
2023-02-01T03:46:43.971Z,47.93
2023-02-01T03:49:21.641Z,47.98
2023-02-01T03:51:51.843Z,48.24
2023-02-01T03:54:24.869Z,48.45
2023-02-01T03:56:55.058Z,48.51
2023-02-01T03:59:22.376Z,48.87
2023-02-01T04:01:49.591Z,48.43
2023-02-01T04:04:17.407Z,48.21
2023-02-01T04:06:44.604Z,48.40
2023-02-01T04:09:11.834Z,48.54
2023-02-01T04:11:39.146Z,48.42
2023-02-01T04:14:09.794Z,48.48
2023-02-01T04:16:37.014Z,48.38
2023-02-01T04:19:04.505Z,48.28
2023-02-01T04:21:31.817Z,48.41
2023-02-01T04:23:59.382Z,48.28
2023-02-01T04:26:26.948Z,48.40
2023-02-01T04:28:54.252Z,48.78
2023-02-01T04:31:21.937Z,48.49
2023-02-01T04:33:49.162Z,48.50
2023-02-01T04:36:16.336Z,48.82
2023-02-01T04:38:43.493Z,48.60
2023-02-01T04:41:10.813Z,48.30
2023-02-01T04:43:38.077Z,48.09
2023-02-01T04:46:05.520Z,48.41
2023-02-01T04:48:32.952Z,48.57
2023-02-01T04:51:00.155Z,48.19
2023-02-01T04:53:27.300Z,48.31
2023-02-01T04:55:55.106Z,48.57
2023-02-01T04:58:22.739Z,48.83
2023-02-01T05:00:49.987Z,48.22
2023-02-01T05:03:17.563Z,48.19
2023-02-01T05:05:45.024Z,48.53
2023-02-01T05:08:12.230Z,48.48
2023-02-01T05:10:39.441Z,48.95
2023-02-01T05:13:06.616Z,48.31
2023-02-01T05:15:34.092Z,48.46
2023-02-01T05:18:01.349Z,48.54
2023-02-01T05:20:28.600Z,48.56
2023-02-01T05:22:55.763Z,48.85
2023-02-01T05:25:24.124Z,48.42
2023-02-01T05:27:51.331Z,48.75
2023-02-01T05:30:18.903Z,48.92
2023-02-01T05:32:46.273Z,48.28
2023-02-01T05:35:13.667Z,48.53
2023-02-01T05:37:40.865Z,48.17
2023-02-01T05:40:09.255Z,48.50
2023-02-01T05:42:36.467Z,48.53
2023-02-01T05:45:04.281Z,48.45
2023-02-01T05:47:31.809Z,48.49
2023-02-01T05:49:59.263Z,48.48
2023-02-01T05:52:26.524Z,48.55
2023-02-01T05:54:53.953Z,49.02
2023-02-01T05:57:23.955Z,49.76
2023-02-01T05:59:51.604Z,49.26
2023-02-01T06:02:18.803Z,48.97
2023-02-01T06:04:46.042Z,49.02
2023-02-01T06:07:13.287Z,49.09
2023-02-01T06:09:40.519Z,49.15
2023-02-01T06:12:08.223Z,49.26
2023-02-01T06:14:35.743Z,49.59
2023-02-01T06:17:03.024Z,49.75
2023-02-01T06:19:30.283Z,49.58
2023-02-01T06:21:57.538Z,49.48
2023-02-01T06:24:24.766Z,49.21
2023-02-01T06:26:52.120Z,49.15
2023-02-01T06:29:19.636Z,49.60
2023-02-01T06:31:46.856Z,49.68
2023-02-01T06:34:14.079Z,49.77
2023-02-01T06:36:41.427Z,49.54
2023-02-01T06:39:08.769Z,49.04
2023-02-01T06:41:36.063Z,49.51
2023-02-01T06:44:03.305Z,49.94
2023-02-01T06:46:30.591Z,49.73
2023-02-01T06:48:57.989Z,49.45
2023-02-01T06:51:28.719Z,49.53
2023-02-01T06:53:56.840Z,49.48
2023-02-01T06:56:24.595Z,49.73
2023-02-01T06:58:52.227Z,49.78
2023-02-01T07:01:19.896Z,49.32
2023-02-01T07:03:51.893Z,49.82
2023-02-01T07:06:20.616Z,50.00
2023-02-01T07:08:47.882Z,49.97
2023-02-01T07:11:17.473Z,49.81
2023-02-01T07:13:45.428Z,49.31
2023-02-01T07:16:21.956Z,49.57
2023-02-01T07:18:51.425Z,48.91
2023-02-01T07:21:19.623Z,49.43
2023-02-01T07:23:47.879Z,49.72
2023-02-01T07:26:15.830Z,49.62
2023-02-01T07:28:43.749Z,49.56
2023-02-01T07:31:18.673Z,49.15
2023-02-01T07:33:46.510Z,49.83
2023-02-01T07:36:17.517Z,49.13
2023-02-01T07:38:45.988Z,49.41
2023-02-01T07:41:13.572Z,49.52
2023-02-01T07:43:40.940Z,49.21
2023-02-01T07:46:08.816Z,49.09
2023-02-01T07:48:37.154Z,49.32
2023-02-01T07:51:14.405Z,49.24
2023-02-01T07:53:43.702Z,49.32
2023-02-01T07:56:18.643Z,48.88
2023-02-01T07:58:51.413Z,49.20
2023-02-01T08:01:26.263Z,49.31
2023-02-01T08:04:03.916Z,49.39
2023-02-01T08:06:34.609Z,49.23
2023-02-01T08:09:03.043Z,49.06
2023-02-01T08:11:31.033Z,48.89
2023-02-01T08:14:02.340Z,48.67
2023-02-01T08:16:30.159Z,49.51
2023-02-01T08:18:57.439Z,49.06
2023-02-01T08:21:28.745Z,48.87
2023-02-01T08:23:56.170Z,48.44
2023-02-01T08:26:26.802Z,48.45
2023-02-01T08:28:58.352Z,48.53
2023-02-01T08:31:29.285Z,48.57
2023-02-01T08:34:00.361Z,48.44
2023-02-01T08:36:31.012Z,48.28
2023-02-01T08:38:58.915Z,48.39
2023-02-01T08:41:30.060Z,48.07
2023-02-01T08:43:58.602Z,48.14
2023-02-01T08:46:26.046Z,48.25
2023-02-01T08:48:53.732Z,48.22
2023-02-01T08:51:23.926Z,48.05
2023-02-01T08:53:51.975Z,47.69
2023-02-01T08:56:22.070Z,47.68
2023-02-01T08:58:49.228Z,47.68
2023-02-01T09:01:18.486Z,47.49
2023-02-01T09:03:46.048Z,47.67
2023-02-01T09:06:15.959Z,47.55
2023-02-01T09:08:44.399Z,47.19
2023-02-01T09:11:18.398Z,47.31
2023-02-01T09:13:46.254Z,47.42
2023-02-01T09:16:14.243Z,47.29
2023-02-01T09:18:50.816Z,47.23
2023-02-01T09:21:30.052Z,47.10
2023-02-01T09:23:57.299Z,47.15
2023-02-01T09:26:31.466Z,46.82
2023-02-01T09:28:59.909Z,47.25
2023-02-01T09:31:27.437Z,46.84
2023-02-01T09:33:54.785Z,46.01
2023-02-01T09:36:22.369Z,45.81
2023-02-01T09:38:53.561Z,45.48
2023-02-01T09:41:42.551Z,42.54
2023-02-01T09:44:23.128Z,41.92
2023-02-01T09:46:58.115Z,42.69
2023-02-01T09:49:37.138Z,42.62
2023-02-01T09:52:09.493Z,40.06
2023-02-01T09:54:47.113Z,39.53
2023-02-01T09:57:40.372Z,39.03
2023-02-01T10:00:22.464Z,39.09
2023-02-01T10:02:51.032Z,39.22
2023-02-01T10:05:38.787Z,37.60
2023-02-01T10:08:25.827Z,37.00
2023-02-01T10:11:02.621Z,35.34
2023-02-01T10:14:04.309Z,35.62
2023-02-01T10:17:21.649Z,34.33
2023-02-01T10:20:00.625Z,34.29
2023-02-01T10:23:03.609Z,34.64
2023-02-01T10:26:02.764Z,33.76
2023-02-01T10:28:35.904Z,33.91
2023-02-01T10:31:04.273Z,34.72
2023-02-01T10:33:50.767Z,33.40
2023-02-01T10:37:19.492Z,34.30
2023-02-01T10:39:49.876Z,34.24
2023-02-01T10:42:22.908Z,34.01
2023-02-01T10:44:50.308Z,33.85
2023-02-01T10:47:17.710Z,32.45
2023-02-01T10:49:58.314Z,32.26
2023-02-01T10:52:42.672Z,31.02
2023-02-01T10:55:53.164Z,29.52
2023-02-01T10:58:22.520Z,32.04
2023-02-01T11:00:55.387Z,31.63
2023-02-01T11:03:43.711Z,30.10
2023-02-01T11:06:37.532Z,29.76
2023-02-01T11:09:16.400Z,29.42
2023-02-01T11:11:49.574Z,29.95
2023-02-01T11:14:25.653Z,30.06
2023-02-01T11:17:17.258Z,29.47
2023-02-01T11:20:01.013Z,29.82
2023-02-01T11:22:29.354Z,28.70
2023-02-01T11:24:57.751Z,28.54
2023-02-01T11:27:28.052Z,29.37
2023-02-01T11:30:02.449Z,29.17
2023-02-01T11:32:31.633Z,29.00
2023-02-01T11:35:07.185Z,27.72
2023-02-01T11:37:42.364Z,29.10
2023-02-01T11:40:18.787Z,29.60
2023-02-01T11:42:55.152Z,29.44
2023-02-01T11:45:28.707Z,29.51
2023-02-01T11:47:59.240Z,29.47
2023-02-01T11:51:24.655Z,29.55
2023-02-01T11:54:09.767Z,29.06
2023-02-01T11:57:10.939Z,30.01
2023-02-01T12:00:08.388Z,28.46
2023-02-01T12:02:56.579Z,28.93
2023-02-01T12:05:38.511Z,29.28
2023-02-01T12:08:23.430Z,28.14
2023-02-01T12:11:22.053Z,27.66
2023-02-01T12:14:10.834Z,26.48
2023-02-01T12:17:03.780Z,25.71
2023-02-01T12:20:01.705Z,25.35
2023-02-01T12:22:53.591Z,24.53
2023-02-01T12:25:54.510Z,24.20
2023-02-01T12:29:05.402Z,24.26
2023-02-01T12:31:53.976Z,24.69
2023-02-01T12:34:44.613Z,24.73
2023-02-01T12:37:26.730Z,24.39
2023-02-01T12:40:22.045Z,24.23
2023-02-01T12:43:16.354Z,24.69
2023-02-01T12:46:15.054Z,23.56
2023-02-01T12:48:55.840Z,25.23
2023-02-01T12:51:37.237Z,25.95
2023-02-01T12:55:22.956Z,26.14
2023-02-01T12:58:14.955Z,25.70
2023-02-01T13:00:50.316Z,25.47
2023-02-01T13:03:42.439Z,25.50
2023-02-01T13:06:14.451Z,24.46
2023-02-01T13:09:23.396Z,25.64
2023-02-01T13:11:54.909Z,25.37
2023-02-01T13:14:34.009Z,25.30
2023-02-01T13:17:10.954Z,25.08
2023-02-01T13:19:52.089Z,26.03
2023-02-01T13:22:34.099Z,26.67
2023-02-01T13:25:13.987Z,25.46
2023-02-01T13:27:41.752Z,25.29
2023-02-01T13:31:06.091Z,25.66
2023-02-01T13:34:24.217Z,25.48
2023-02-01T13:37:16.357Z,26.62
2023-02-01T13:40:09.174Z,25.88
2023-02-01T13:42:54.334Z,26.13
2023-02-01T13:45:31.847Z,25.80
2023-02-01T13:48:04.478Z,26.01
2023-02-01T13:50:42.177Z,26.40
2023-02-01T13:53:12.450Z,26.46
2023-02-01T13:55:48.365Z,26.53
2023-02-01T13:58:41.268Z,26.72
2023-02-01T14:01:23.937Z,26.42
2023-02-01T14:03:58.133Z,26.31
2023-02-01T14:06:28.625Z,26.23
2023-02-01T14:09:19.695Z,26.54
2023-02-01T14:11:56.983Z,26.41
2023-02-01T14:14:25.195Z,26.75
2023-02-01T14:16:55.559Z,26.14
2023-02-01T14:19:28.910Z,26.42
2023-02-01T14:22:18.717Z,26.85
2023-02-01T14:24:53.479Z,26.93
2023-02-01T14:27:27.360Z,26.12
2023-02-01T14:30:02.341Z,26.85
2023-02-01T14:32:40.306Z,26.74
2023-02-01T14:35:22.483Z,27.30
2023-02-01T14:37:59.653Z,26.74
2023-02-01T14:40:29.768Z,26.33
2023-02-01T14:42:57.252Z,27.29
2023-02-01T14:45:25.139Z,26.79
2023-02-01T14:47:54.169Z,27.11
2023-02-01T14:50:33.573Z,27.10
2023-02-01T14:53:12.362Z,27.63
2023-02-01T14:55:47.423Z,27.37
2023-02-01T14:58:30.285Z,27.10
2023-02-01T15:01:17.640Z,27.24
2023-02-01T15:04:16.048Z,27.98
2023-02-01T15:07:11.375Z,26.77
2023-02-01T15:09:46.273Z,25.11
2023-02-01T15:12:17.175Z,25.93
2023-02-01T15:14:47.298Z,25.74
2023-02-01T15:17:31.325Z,25.24
2023-02-01T15:20:25.306Z,26.37
2023-02-01T15:23:02.763Z,25.61
2023-02-01T15:25:41.560Z,26.47
2023-02-01T15:28:16.343Z,26.50
2023-02-01T15:31:06.635Z,26.39
2023-02-01T15:33:34.683Z,26.51
2023-02-01T15:36:08.011Z,26.35
2023-02-01T15:38:40.238Z,26.25
2023-02-01T15:41:12.471Z,27.53
2023-02-01T15:43:56.573Z,27.19
2023-02-01T15:46:48.173Z,27.29
2023-02-01T15:49:40.859Z,27.73
2023-02-01T15:52:27.253Z,27.26
2023-02-01T15:54:59.737Z,27.41
2023-02-01T15:57:39.422Z,27.58
2023-02-01T16:00:30.416Z,28.18
2023-02-01T16:03:00.931Z,28.26
2023-02-01T16:05:44.356Z,27.88
2023-02-01T16:08:16.451Z,27.89
2023-02-01T16:10:49.141Z,28.24
2023-02-01T16:13:19.674Z,27.59
2023-02-01T16:15:47.327Z,27.71
2023-02-01T16:18:18.463Z,28.71
2023-02-01T16:20:48.367Z,28.47
2023-02-01T16:23:15.706Z,28.40
2023-02-01T16:25:43.686Z,28.93
2023-02-01T16:28:11.149Z,28.83
2023-02-01T16:30:38.691Z,28.80
2023-02-01T16:33:12.865Z,28.87
2023-02-01T16:35:40.269Z,28.65
2023-02-01T16:38:16.751Z,28.65
2023-02-01T16:40:45.310Z,29.09
2023-02-01T16:43:26.569Z,29.38
2023-02-01T16:45:59.962Z,29.33
2023-02-01T16:48:32.034Z,29.55
2023-02-01T16:51:14.691Z,29.35
2023-02-01T16:53:53.836Z,28.79
2023-02-01T16:56:31.676Z,29.61
2023-02-01T16:58:59.257Z,29.08
2023-02-01T17:01:27.353Z,28.98
2023-02-01T17:03:55.361Z,28.86
2023-02-01T17:06:26.603Z,29.03
2023-02-01T17:09:00.104Z,29.04
2023-02-01T17:11:28.611Z,29.59
2023-02-01T17:13:58.023Z,28.72
2023-02-01T17:16:32.473Z,28.43
2023-02-01T17:19:09.856Z,28.79
2023-02-01T17:21:47.755Z,28.97
2023-02-01T17:24:17.071Z,28.88
2023-02-01T17:26:46.281Z,29.17
2023-02-01T17:29:14.314Z,29.24
2023-02-01T17:31:46.722Z,29.13
2023-02-01T17:34:19.185Z,29.34
2023-02-01T17:36:48.106Z,28.67
2023-02-01T17:39:18.759Z,29.07
2023-02-01T17:41:45.997Z,29.08
2023-02-01T17:44:13.249Z,29.38
2023-02-01T17:46:40.625Z,29.83
2023-02-01T17:49:07.920Z,29.96
2023-02-01T17:51:35.751Z,30.01
2023-02-01T17:54:03.015Z,29.96
2023-02-01T17:56:32.751Z,29.68
2023-02-01T17:59:00.058Z,30.04
2023-02-01T18:01:27.401Z,30.12
2023-02-01T18:03:54.875Z,29.78
2023-02-01T18:06:27.668Z,29.82
2023-02-01T18:08:55.176Z,30.36
2023-02-01T18:11:25.098Z,30.42
2023-02-01T18:13:53.923Z,30.42
2023-02-01T18:16:25.162Z,30.41
2023-02-01T18:18:53.368Z,30.83
2023-02-01T18:21:23.651Z,30.56
2023-02-01T18:23:50.856Z,31.22
2023-02-01T18:26:19.445Z,31.43
2023-02-01T18:28:46.693Z,30.62
2023-02-01T18:31:31.045Z,31.28
2023-02-01T18:34:00.741Z,31.59
2023-02-01T18:36:28.937Z,31.94
2023-02-01T18:38:56.305Z,31.84
2023-02-01T18:41:26.261Z,32.72
2023-02-01T18:43:54.095Z,32.55
2023-02-01T18:46:21.490Z,33.04
2023-02-01T18:48:49.298Z,32.82
2023-02-01T18:51:20.931Z,32.42
2023-02-01T18:53:49.500Z,32.86
2023-02-01T18:56:18.132Z,33.09
2023-02-01T18:58:46.147Z,33.29
2023-02-01T19:01:20.283Z,33.56
2023-02-01T19:03:54.306Z,33.47
2023-02-01T19:06:35.147Z,33.34
2023-02-01T19:09:02.346Z,33.69
2023-02-01T19:11:29.876Z,34.26
2023-02-01T19:13:57.267Z,35.29
2023-02-01T19:16:24.499Z,35.33
2023-02-01T19:18:53.683Z,35.17
2023-02-01T19:21:21.144Z,35.76
2023-02-01T19:23:48.684Z,35.91
2023-02-01T19:26:18.213Z,36.74
2023-02-01T19:28:45.876Z,37.11
2023-02-01T19:31:13.692Z,37.00
2023-02-01T19:33:41.157Z,38.02
2023-02-01T19:36:08.877Z,38.73
2023-02-01T19:38:38.761Z,38.78
2023-02-01T19:41:07.594Z,38.81
2023-02-01T19:43:35.102Z,39.18
2023-02-01T19:46:02.453Z,39.84
2023-02-01T19:48:31.395Z,40.21
2023-02-01T19:50:59.645Z,39.98
2023-02-01T19:53:28.937Z,40.01
2023-02-01T19:55:58.501Z,40.54
2023-02-01T19:58:27.444Z,40.70
2023-02-01T20:00:57.797Z,40.60
2023-02-01T20:03:25.625Z,40.72
2023-02-01T20:05:55.377Z,40.09
2023-02-01T20:08:22.950Z,40.51
2023-02-01T20:10:51.695Z,40.82
2023-02-01T20:13:19.149Z,40.99
2023-02-01T20:15:46.569Z,41.23
2023-02-01T20:18:13.861Z,41.23
2023-02-01T20:20:41.858Z,41.12
2023-02-01T20:23:09.277Z,41.26
2023-02-01T20:25:38.633Z,41.87
2023-02-01T20:28:05.994Z,41.43
2023-02-01T20:30:33.322Z,42.74
2023-02-01T20:33:00.690Z,42.50
2023-02-01T20:35:28.163Z,42.35
2023-02-01T20:37:55.807Z,42.96
2023-02-01T20:40:23.041Z,43.78
2023-02-01T20:42:53.004Z,44.45
2023-02-01T20:45:20.871Z,43.97
2023-02-01T20:47:51.577Z,44.42
2023-02-01T20:50:19.770Z,44.13
2023-02-01T20:52:47.062Z,43.72
2023-02-01T20:55:14.348Z,43.63
2023-02-01T20:57:42.169Z,42.85
2023-02-01T21:00:10.487Z,42.60
2023-02-01T21:02:39.949Z,43.14
2023-02-01T21:05:08.049Z,42.45
2023-02-01T21:07:37.380Z,42.18
2023-02-01T21:10:05.997Z,41.73
2023-02-01T21:12:33.876Z,41.75
2023-02-01T21:15:01.507Z,41.68
2023-02-01T21:17:31.679Z,41.66
2023-02-01T21:19:59.872Z,41.97
2023-02-01T21:22:27.111Z,41.54
2023-02-01T21:24:54.304Z,41.11
2023-02-01T21:27:21.622Z,40.46
2023-02-01T21:29:48.743Z,40.29
2023-02-01T21:32:15.913Z,41.73
2023-02-01T21:34:43.006Z,40.64
2023-02-01T21:37:10.341Z,40.50
2023-02-01T21:39:37.510Z,40.74
2023-02-01T21:42:04.905Z,40.63
2023-02-01T21:44:32.186Z,40.96
2023-02-01T21:46:59.344Z,40.51
2023-02-01T21:49:28.047Z,40.07
2023-02-01T21:51:56.157Z,39.76
2023-02-01T21:54:23.394Z,39.48
2023-02-01T21:56:50.758Z,40.19
2023-02-01T21:59:18.205Z,39.58
2023-02-01T22:01:46.126Z,40.13
2023-02-01T22:04:13.485Z,40.13
2023-02-01T22:06:44.189Z,39.75
2023-02-01T22:09:20.108Z,40.58
2023-02-01T22:11:48.831Z,40.23
2023-02-01T22:14:17.002Z,40.37
2023-02-01T22:16:45.073Z,40.62
2023-02-01T22:19:13.877Z,40.86
2023-02-01T22:21:43.011Z,39.92
2023-02-01T22:24:13.781Z,39.40
2023-02-01T22:26:42.376Z,39.23
2023-02-01T22:29:10.955Z,39.86
2023-02-01T22:31:38.207Z,39.60
2023-02-01T22:34:06.141Z,39.76
2023-02-01T22:36:33.923Z,40.45
2023-02-01T22:39:01.028Z,39.98
2023-02-01T22:41:28.406Z,40.55
2023-02-01T22:43:55.805Z,39.87
2023-02-01T22:46:24.716Z,40.33
2023-02-01T22:48:52.543Z,39.93
2023-02-01T22:51:32.022Z,40.32
2023-02-01T22:54:00.292Z,40.64
2023-02-01T22:56:37.425Z,40.61
2023-02-01T22:59:09.312Z,40.68
2023-02-01T23:01:36.945Z,40.60
2023-02-01T23:04:07.730Z,39.89
2023-02-01T23:06:35.735Z,40.57
2023-02-01T23:09:08.707Z,40.25
2023-02-01T23:11:35.981Z,39.62
2023-02-01T23:14:03.283Z,39.75
2023-02-01T23:16:30.518Z,40.31
2023-02-01T23:18:57.798Z,40.15
2023-02-01T23:21:25.525Z,40.58
2023-02-01T23:23:58.004Z,40.35
2023-02-01T23:26:29.755Z,40.29
2023-02-01T23:28:59.264Z,40.78
2023-02-01T23:31:29.847Z,40.31
2023-02-01T23:34:02.224Z,40.35
2023-02-01T23:36:31.962Z,40.32
2023-02-01T23:39:00.103Z,40.82
2023-02-01T23:41:27.634Z,41.19
2023-02-01T23:43:54.815Z,40.46
2023-02-01T23:46:22.377Z,41.13
2023-02-01T23:48:50.700Z,41.05
2023-02-01T23:51:18.974Z,40.95
2023-02-01T23:53:46.440Z,40.94
2023-02-01T23:56:25.537Z,40.71
2023-02-01T23:58:55.678Z,40.90
